Time;durP1;ratioP1;P1;durP2;ratioP2;P2;SDS_P1;SDS_P2;PMS_P1;PMS_P2;Temp;Humidity;BMP_temperature;BMP_pressure;BME280_temperature;BME280_humidity;BME280_pressure;Samples;Min_cycle;Max_cycle;Signal;HPM_P1;HPM_P2
2022/05/07 00:00:48;;;;;;;9.50;6.35;;;13.80;97.60;;;;;;5010934;28;20084;-83
2022/05/07 00:03:14;;;;;;;21.05;6.82;;;13.80;97.70;;;;;;5010671;28;20371;-83
2022/05/07 00:05:40;;;;;;;12.13;6.28;;;13.80;97.80;;;;;;5010927;28;20544;-83
2022/05/07 00:08:06;;;;;;;11.00;6.90;;;13.80;97.80;;;;;;5010635;28;20375;-83
2022/05/07 00:10:32;;;;;;;12.40;6.85;;;13.70;97.90;;;;;;5010836;28;20045;-83
2022/05/07 00:12:58;;;;;;;10.55;6.32;;;13.70;98.00;;;;;;5010654;28;20030;-83
2022/05/07 00:15:24;;;;;;;10.73;6.45;;;13.70;98.00;;;;;;4993206;28;20030;-83
2022/05/07 00:18:10;;;;;;;11.07;6.45;;;13.80;97.90;;;;;;5010443;28;20056;-83
2022/05/07 00:20:37;;;;;;;10.93;6.38;;;13.70;98.00;;;;;;4993225;28;20034;-83
2022/05/07 00:23:03;;;;;;;11.43;6.80;;;13.70;98.00;;;;;;4995185;28;20026;-83
2022/05/07 00:25:29;;;;;;;11.18;6.93;;;13.60;98.00;;;;;;5014603;28;20555;-83
2022/05/07 00:27:55;;;;;;;9.93;6.45;;;13.60;98.20;;;;;;5014322;28;20052;-83
2022/05/07 00:30:21;;;;;;;12.10;7.10;;;13.60;98.30;;;;;;5014318;28;20470;-83
2022/05/07 00:32:47;;;;;;;12.55;6.97;;;13.60;98.40;;;;;;4996647;28;20026;-83
2022/05/07 00:35:13;;;;;;;12.82;6.75;;;13.60;98.40;;;;;;4996881;28;20033;-83
2022/05/07 00:37:39;;;;;;;13.32;6.88;;;13.50;98.50;;;;;;4980422;28;20034;-83
2022/05/07 00:40:06;;;;;;;11.70;6.47;;;13.50;98.50;;;;;;4996725;28;20034;-83
2022/05/07 00:42:32;;;;;;;12.25;6.97;;;13.60;98.50;;;;;;5014026;28;20038;-83
2022/05/07 00:44:58;;;;;;;10.45;6.70;;;13.60;98.50;;;;;;4996430;28;20372;-83
2022/05/07 00:47:26;;;;;;;11.40;6.70;;;13.50;98.60;;;;;;5013832;28;20072;-83
2022/05/07 00:52:47;;;;;;;12.30;7.95;;;13.60;98.70;;;;;;4996390;28;20486;-83
2022/05/07 00:55:14;;;;;;;13.98;7.57;;;13.60;98.70;;;;;;5013952;28;20068;-83
2022/05/07 00:57:41;;;;;;;11.57;6.82;;;13.60;98.70;;;;;;4979876;28;20092;-83
2022/05/07 01:00:08;;;;;;;11.98;7.63;;;13.60;98.60;;;;;;5013899;28;20032;-83
2022/05/07 01:02:36;;;;;;;13.43;8.00;;;13.60;98.60;;;;;;4996159;28;20413;-83
2022/05/07 01:05:03;;;;;;;12.57;7.85;;;13.60;98.60;;;;;;5014206;28;20057;-83
2022/05/07 01:07:33;;;;;;;13.48;8.32;;;13.50;98.70;;;;;;4996047;28;20030;-83
2022/05/07 01:09:59;;;;;;;13.00;8.32;;;13.60;98.60;;;;;;4995820;28;20552;-83
2022/05/07 01:12:25;;;;;;;15.77;9.57;;;13.50;98.70;;;;;;4995790;28;20041;-83
2022/05/07 01:14:55;;;;;;;15.55;9.02;;;13.40;98.80;;;;;;4979902;28;20084;-83
2022/05/07 01:17:21;;;;;;;17.77;9.55;;;13.40;99.00;;;;;;4995837;28;20088;-83
2022/05/07 01:19:50;;;;;;;16.15;9.82;;;13.40;99.00;;;;;;4995729;28;20037;-83
2022/05/07 01:22:17;;;;;;;16.52;10.05;;;13.30;99.00;;;;;;4979511;28;20034;-83
2022/05/07 01:24:42;;;;;;;16.25;9.65;;;13.30;99.00;;;;;;4995549;28;20402;-83
2022/05/07 01:27:08;;;;;;;16.00;8.90;;;13.30;99.10;;;;;;4995520;28;20030;-83
2022/05/07 01:29:34;;;;;;;17.15;9.60;;;13.30;99.00;;;;;;5013324;28;20491;-83
2022/05/07 01:32:00;;;;;;;15.18;9.50;;;13.30;99.10;;;;;;4995607;28;20382;-83
2022/05/07 01:34:26;;;;;;;15.25;8.85;;;13.30;99.20;;;;;;4995653;28;20508;-83
2022/05/07 01:36:54;;;;;;;17.73;8.88;;;13.30;99.20;;;;;;4995456;28;20033;-83
2022/05/07 01:39:20;;;;;;;17.33;9.68;;;13.20;99.30;;;;;;4995258;28;20033;-83
2022/05/07 01:41:46;;;;;;;16.67;9.57;;;13.20;99.40;;;;;;4995275;28;20026;-82
2022/05/07 01:44:12;;;;;;;16.83;10.05;;;13.20;99.40;;;;;;5013207;28;20362;-82
2022/05/07 01:49:27;;;;;;;16.17;9.25;;;13.20;99.70;;;;;;4995264;28;20062;-82
2022/05/07 01:51:54;;;;;;;18.35;10.57;;;13.10;99.90;;;;;;4995066;28;20447;-82
2022/05/07 01:54:20;;;;;;;15.65;10.07;;;13.10;99.90;;;;;;4995500;28;20157;-82
2022/05/07 01:56:48;;;;;;;17.42;10.27;;;13.10;99.80;;;;;;4995024;28;20030;-82
2022/05/07 01:59:14;;;;;;;17.48;9.88;;;13.20;99.80;;;;;;4995039;28;20053;-82
2022/05/07 02:01:40;;;;;;;17.30;10.98;;;13.10;99.90;;;;;;4994946;28;20026;-82
2022/05/07 02:04:08;;;;;;;17.63;10.45;;;13.10;99.90;;;;;;4995541;28;20036;-83
2022/05/07 02:06:34;;;;;;;18.00;11.02;;;13.10;99.90;;;;;;4994659;28;20398;-83
2022/05/07 02:09:00;;;;;;;17.83;10.30;;;13.00;99.90;;;;;;4995038;28;20517;-83
2022/05/07 02:11:30;;;;;;;17.38;10.23;;;13.00;99.90;;;;;;4994745;28;20084;-83
2022/05/07 02:13:56;;;;;;;17.55;10.32;;;13.00;99.90;;;;;;4994888;28;20029;-83
2022/05/07 02:16:22;;;;;;;17.23;9.95;;;13.00;99.90;;;;;;4978868;28;20030;-83
2022/05/07 02:18:48;;;;;;;15.35;9.32;;;13.00;99.90;;;;;;4994463;28;20565;-83
2022/05/07 02:21:13;;;;;;;17.23;10.25;;;13.00;99.90;;;;;;5012772;28;20117;-83
2022/05/07 02:23:39;;;;;;;15.82;10.02;;;13.00;99.90;;;;;;4994507;28;20087;-83
2022/05/07 02:26:07;;;;;;;16.02;9.65;;;13.00;99.90;;;;;;4994793;28;20034;-83
2022/05/07 02:28:33;;;;;;;16.53;9.77;;;12.90;99.90;;;;;;4994345;28;20029;-83
2022/05/07 02:31:00;;;;;;;18.85;9.45;;;12.90;99.90;;;;;;4994717;28;20040;-83
2022/05/07 02:33:27;;;;;;;18.42;10.57;;;12.90;99.90;;;;;;4994348;28;20025;-83
2022/05/07 02:35:52;;;;;;;16.15;9.63;;;12.90;99.90;;;;;;4994463;28;20107;-83
2022/05/07 02:38:18;;;;;;;17.42;11.10;;;13.00;99.90;;;;;;5011923;28;20034;-83
2022/05/07 02:43:35;;;;;;;18.08;11.35;;;12.90;99.90;;;;;;4994370;28;20634;-83
2022/05/07 02:46:04;;;;;;;21.55;12.05;;;12.90;99.90;;;;;;4993595;28;20565;-83
2022/05/07 02:48:35;;;;;;;17.87;10.50;;;12.80;99.90;;;;;;4993830;28;20116;-83
2022/05/07 02:51:03;;;;;;;18.85;10.65;;;12.90;99.90;;;;;;4994292;28;20034;-83
2022/05/07 02:53:28;;;;;;;17.13;11.10;;;12.80;99.90;;;;;;4994004;28;20048;-83
2022/05/07 02:55:54;;;;;;;20.40;12.07;;;12.80;99.90;;;;;;4994351;28;20034;-83
2022/05/07 02:58:21;;;;;;;18.13;11.32;;;12.80;99.90;;;;;;4977633;28;20508;-84
2022/05/07 03:00:49;;;;;;;18.10;10.60;;;12.80;99.90;;;;;;4994040;28;20112;-83
2022/05/07 03:03:15;;;;;;;20.10;12.45;;;12.80;99.90;;;;;;4977747;28;20034;-83
2022/05/07 03:05:42;;;;;;;18.73;11.13;;;12.80;99.90;;;;;;4993750;28;20498;-83
2022/05/07 03:08:08;;;;;;;17.90;11.00;;;12.80;99.90;;;;;;4993700;28;20483;-83
2022/05/07 03:10:36;;;;;;;16.73;11.00;;;12.80;99.90;;;;;;4993886;28;20030;-83
2022/05/07 03:13:02;;;;;;;19.15;11.60;;;12.80;99.90;;;;;;4993715;28;20029;-83
2022/05/07 03:15:28;;;;;;;19.33;11.30;;;12.80;99.90;;;;;;4993956;28;20058;-83
2022/05/07 03:17:54;;;;;;;18.88;11.30;;;12.80;99.90;;;;;;5011514;28;20046;-83
2022/05/07 03:20:21;;;;;;;20.15;12.55;;;12.80;99.90;;;;;;4993711;28;20049;-83
2022/05/07 03:22:48;;;;;;;19.30;11.93;;;12.70;99.90;;;;;;4993802;28;20026;-83
2022/05/07 03:25:14;;;;;;;20.17;12.87;;;12.80;99.90;;;;;;4993628;28;20470;-83
2022/05/07 03:27:39;;;;;;;21.05;13.02;;;12.80;99.90;;;;;;4993236;28;20034;-83
2022/05/07 03:30:11;;;;;;;20.67;12.93;;;12.70;99.90;;;;;;4993794;28;20510;-83
2022/05/07 03:32:55;;;;;;;21.47;12.93;;;12.70;99.90;;;;;;5011080;28;20026;-83
2022/05/07 03:35:21;;;;;;;21.37;13.07;;;12.70;99.90;;;;;;4993452;28;20080;-83
2022/05/07 03:37:46;;;;;;;21.93;13.90;;;12.70;99.90;;;;;;4993392;28;20025;-83
2022/05/07 03:40:13;;;;;;;20.97;13.40;;;12.70;99.90;;;;;;4993454;28;20559;-83
2022/05/07 03:42:39;;;;;;;21.42;13.73;;;12.60;99.90;;;;;;4993815;28;20468;-83
2022/05/07 03:45:05;;;;;;;21.45;13.98;;;12.70;99.90;;;;;;4993383;28;20078;-83
2022/05/07 03:47:34;;;;;;;23.98;14.30;;;12.70;99.90;;;;;;4993112;28;20084;-83
2022/05/07 03:50:00;;;;;;;22.73;13.93;;;12.70;99.90;;;;;;4993346;28;20034;-83
2022/05/07 03:55:14;;;;;;;23.63;14.65;;;12.80;99.90;;;;;;4993407;28;20026;-84
2022/05/07 03:57:40;;;;;;;22.73;16.10;;;12.90;99.90;;;;;;4994797;28;20034;-83
2022/05/07 04:00:07;;;;;;;24.45;15.93;;;12.90;99.90;;;;;;4997363;28;20045;-83
2022/05/07 04:02:39;;;;;;;26.47;16.47;;;13.00;99.90;;;;;;5014984;28;20045;-83
2022/05/07 04:05:09;;;;;;;25.77;16.65;;;13.00;99.90;;;;;;4997179;28;20066;-84
2022/05/07 04:07:36;;;;;;;27.13;17.40;;;12.90;99.90;;;;;;4997179;28;20045;-83
2022/05/07 04:10:07;;;;;;;28.05;17.48;;;12.90;99.90;;;;;;4981586;28;20041;-83
2022/05/07 04:12:37;;;;;;;26.30;16.90;;;12.90;99.90;;;;;;4997130;28;20033;-83
2022/05/07 04:15:04;;;;;;;26.90;17.97;;;12.90;99.90;;;;;;4997016;28;20057;-83
2022/05/07 04:17:33;;;;;;;;;;;12.90;99.90;;;;;;4997466;28;20026;-83
2022/05/07 04:20:03;;;;;;;28.10;17.42;;;12.90;99.90;;;;;;4997162;28;19909;-83
2022/05/07 04:22:32;;;;;;;30.87;18.33;;;12.90;99.90;;;;;;4996880;28;20041;-83
2022/05/07 04:24:58;;;;;;;24.77;17.30;;;12.90;99.90;;;;;;4997131;28;20033;-83
2022/05/07 04:27:24;;;;;;;29.10;17.47;;;12.90;99.90;;;;;;4996692;28;20049;-83
2022/05/07 04:29:54;;;;;;;28.77;18.33;;;12.90;99.90;;;;;;4996682;28;20018;-83
2022/05/07 04:32:21;;;;;;;25.37;17.07;;;12.90;99.90;;;;;;5014617;28;20410;-83
2022/05/07 04:34:52;;;;;;;27.70;17.93;;;12.90;99.90;;;;;;4996767;28;20026;-83
2022/05/07 04:37:18;;;;;;;29.63;19.02;;;12.90;99.90;;;;;;4996540;28;20092;-83
2022/05/07 04:39:44;;;;;;;29.63;18.73;;;12.80;99.90;;;;;;4980309;28;20037;-83
2022/05/07 04:42:10;;;;;;;30.83;18.70;;;12.90;99.90;;;;;;4996511;28;20073;-83
2022/05/07 04:44:42;;;;;;;28.23;18.90;;;12.90;99.90;;;;;;4996481;28;20033;-83
2022/05/07 04:47:16;;;;;;;28.33;18.02;;;12.80;99.90;;;;;;4996593;28;20402;-83
2022/05/07 04:49:43;;;;;;;27.58;17.92;;;12.80;99.90;;;;;;4996362;28;20041;-82
2022/05/07 04:52:10;;;;;;;27.77;18.30;;;12.80;99.90;;;;;;4980340;28;20489;-83
2022/05/07 04:54:38;;;;;;;28.50;18.42;;;13.00;99.90;;;;;;4996444;28;20033;-83
2022/05/07 04:57:06;;;;;;;27.58;18.65;;;13.00;99.90;;;;;;4980270;28;20033;-83
2022/05/07 04:59:43;;;;;;;28.90;19.17;;;13.00;99.90;;;;;;4996164;28;20172;-83
2022/05/07 05:02:16;;;;;;;29.05;19.08;;;13.10;99.90;;;;;;4996172;28;20025;-83
2022/05/07 05:04:47;;;;;;;30.05;19.17;;;13.10;99.90;;;;;;4996200;28;20030;-83
2022/05/07 05:07:17;;;;;;;26.65;19.05;;;13.20;99.90;;;;;;4995947;28;20034;-83
2022/05/07 05:09:46;;;;;;;27.48;19.27;;;13.20;99.90;;;;;;4995465;28;20030;-83
2022/05/07 05:12:22;;;;;;;29.20;19.50;;;13.20;99.90;;;;;;4980989;28;20101;-83
2022/05/07 05:15:08;;;;;;;28.23;19.23;;;13.20;99.90;;;;;;4996301;28;20041;-83
2022/05/07 05:17:51;;;;;;;29.02;19.80;;;13.20;99.90;;;;;;4995710;28;20458;-83
2022/05/07 05:20:18;;;;;;;29.00;21.58;;;13.30;99.90;;;;;;4995842;28;20041;-83
2022/05/07 05:22:53;;;;;;;32.65;21.42;;;13.30;99.90;;;;;;4995820;28;20065;-83
2022/05/07 05:25:26;;;;;;;31.70;20.92;;;13.30;99.90;;;;;;4995906;28;20413;-83
2022/05/07 05:27:52;;;;;;;29.33;20.65;;;13.30;99.90;;;;;;5013140;28;20036;-83
2022/05/07 05:30:19;;;;;;;30.65;21.75;;;13.30;99.90;;;;;;4995644;28;20034;-83
2022/05/07 05:32:47;;;;;;;29.75;21.63;;;13.40;99.90;;;;;;4995412;28;20029;-83
2022/05/07 05:35:13;;;;;;;34.38;22.65;;;13.40;99.90;;;;;;4995654;28;20125;-83
2022/05/07 05:37:45;;;;;;;31.55;21.52;;;13.40;99.90;;;;;;4995278;28;20033;-83
2022/05/07 05:40:12;;;;;;;30.35;21.77;;;13.40;99.90;;;;;;4995608;28;20032;-83
2022/05/07 05:42:44;;;;;;;30.40;22.23;;;13.40;99.90;;;;;;4995474;28;20062;-83
2022/05/07 05:45:10;;;;;;;33.47;22.13;;;13.50;99.90;;;;;;5013024;28;20058;-83
2022/05/07 05:47:39;;;;;;;30.20;21.88;;;13.50;99.90;;;;;;4995180;28;20068;-83
2022/05/07 05:50:06;;;;;;;30.70;21.45;;;13.60;99.90;;;;;;5009514;23;20518;-68
2022/05/07 05:52:39;;;;;;;30.67;22.80;;;13.60;99.90;;;;;;4995588;28;20108;-69
2022/05/07 05:55:06;;;;;;;33.58;22.38;;;13.60;99.90;;;;;;5011825;28;20130;-68
2022/05/07 05:57:33;;;;;;;28.20;21.33;;;13.60;99.90;;;;;;4995330;28;20080;-69
2022/05/07 06:00:00;;;;;;;31.52;23.13;;;13.70;99.90;;;;;;4995217;28;20124;-69
2022/05/07 06:02:28;;;;;;;30.77;22.08;;;13.70;99.90;;;;;;4995155;28;20030;-68
2022/05/07 06:05:00;;;;;;;29.55;22.20;;;13.70;99.90;;;;;;4995342;28;20596;-70
2022/05/07 06:07:29;;;;;;;31.73;23.23;;;13.70;99.90;;;;;;4994863;28;20084;-68
2022/05/07 06:09:58;;;;;;;31.80;22.63;;;13.80;99.90;;;;;;4995167;28;20453;-69
2022/05/07 06:12:25;;;;;;;28.70;21.33;;;13.80;99.90;;;;;;4994810;28;20066;-69
2022/05/07 06:14:55;;;;;;;30.42;22.50;;;13.80;99.90;;;;;;4995118;28;20022;-68
2022/05/07 06:17:23;;;;;;;31.63;23.05;;;13.80;99.90;;;;;;4978761;28;20030;-68
2022/05/07 06:19:52;;;;;;;32.67;22.90;;;13.80;99.90;;;;;;4994010;28;20088;-68
2022/05/07 06:22:18;;;;;;;30.77;22.38;;;13.90;99.90;;;;;;4994826;28;20498;-69
2022/05/07 06:27:42;;;;;;;30.38;23.02;;;14.00;99.90;;;;;;4994771;28;20041;-69
2022/05/07 06:30:19;;;;;;;34.70;22.50;;;14.00;99.90;;;;;;4994834;28;20033;-69
2022/05/07 06:32:50;;;;;;;28.17;21.45;;;14.10;99.90;;;;;;4994520;28;20120;-69
2022/05/07 06:35:18;;;;;;;27.70;20.85;;;14.10;99.90;;;;;;4994434;28;20057;-68
2022/05/07 06:37:53;;;;;;;31.70;23.85;;;14.20;99.90;;;;;;4994317;28;20121;-69
2022/05/07 06:40:21;;;;;;;31.48;23.90;;;14.20;99.90;;;;;;4994528;28;20049;-68
2022/05/07 06:42:49;;;;;;;35.93;24.43;;;14.20;99.90;;;;;;4994523;28;20112;-68
2022/05/07 06:45:25;;;;;;;33.92;23.85;;;14.30;99.90;;;;;;4994776;28;20136;-68
2022/05/07 06:47:51;;;;;;;30.48;21.67;;;14.30;99.90;;;;;;4994427;28;20452;-68
2022/05/07 06:50:18;;;;;;;30.45;21.95;;;14.40;99.90;;;;;;4994518;28;20065;-68
2022/05/07 06:52:46;;;;;;;27.70;20.75;;;14.50;99.90;;;;;;4994322;28;20026;-69
2022/05/07 06:55:16;;;;;;;32.55;22.55;;;14.50;99.90;;;;;;5011942;28;20029;-68
2022/05/07 06:57:42;;;;;;;27.00;20.10;;;14.60;99.90;;;;;;5011724;28;20380;-68
2022/05/07 07:00:13;;;;;;;25.88;19.50;;;14.70;99.90;;;;;;5011724;28;20498;-69
2022/05/07 07:02:40;;;;;;;27.52;19.13;;;14.80;99.90;;;;;;5012193;28;20052;-69
2022/05/07 07:05:07;;;;;;;32.78;22.60;;;14.80;99.70;;;;;;5011784;28;20034;-69
2022/05/07 07:07:36;;;;;;;31.73;21.40;;;14.90;99.50;;;;;;5011477;28;20100;-69
2022/05/07 07:10:02;;;;;;;30.33;21.65;;;15.00;99.30;;;;;;5011761;28;20077;-69
2022/05/07 07:12:29;;;;;;;32.72;22.17;;;15.00;99.10;;;;;;5011508;28;20030;-68
2022/05/07 07:14:55;;;;;;;31.20;21.83;;;15.10;99.00;;;;;;5011494;28;20386;-69
2022/05/07 07:17:23;;;;;;;28.08;20.35;;;15.10;99.10;;;;;;5011523;28;20037;-68
2022/05/07 07:19:49;;;;;;;30.35;20.13;;;15.20;99.10;;;;;;5011553;28;20479;-68
2022/05/07 07:22:15;;;;;;;30.58;19.63;;;15.20;99.00;;;;;;5011379;28;20034;-68
2022/05/07 07:24:41;;;;;;;26.73;19.98;;;15.30;99.00;;;;;;5011505;28;20095;-68
2022/05/07 07:27:08;;;;;;;26.75;18.27;;;15.30;98.90;;;;;;5011229;28;20061;-69
2022/05/07 07:29:34;;;;;;;34.90;22.23;;;15.30;98.90;;;;;;5011270;28;20022;-68
2022/05/07 07:32:00;;;;;;;28.85;20.70;;;15.40;98.80;;;;;;4993418;28;20092;-69
2022/05/07 07:34:26;;;;;;;26.08;19.30;;;15.40;98.70;;;;;;5011224;28;20083;-68
2022/05/07 07:36:52;;;;;;;32.55;20.00;;;15.50;98.70;;;;;;5011044;28;20475;-68
2022/05/07 07:39:19;;;;;;;27.75;19.48;;;15.60;98.60;;;;;;5011229;28;20151;-68
2022/05/07 07:41:46;;;;;;;30.77;20.52;;;15.60;98.40;;;;;;5011083;28;20036;-68
2022/05/07 07:44:12;;;;;;;27.13;19.00;;;15.70;98.80;;;;;;5010847;28;20034;-69
2022/05/07 07:49:23;;;;;;;26.38;18.25;;;15.80;97.90;;;;;;5010872;28;20026;-69
2022/05/07 07:51:49;;;;;;;26.55;19.20;;;15.80;97.80;;;;;;5011143;28;20193;-69
2022/05/07 07:54:15;;;;;;;34.55;22.35;;;15.90;97.90;;;;;;5011502;28;20482;-68
2022/05/07 07:56:44;;;;;;;34.15;21.65;;;16.00;97.90;;;;;;5010714;28;20037;-69
2022/05/07 07:59:11;;;;;;;33.50;21.08;;;16.00;97.70;;;;;;5011020;28;20041;-69
2022/05/07 08:01:37;;;;;;;33.00;21.05;;;16.10;97.90;;;;;;5010917;28;20398;-68
2022/05/07 08:04:04;;;;;;;33.85;21.75;;;16.10;97.90;;;;;;4993494;28;20052;-69
2022/05/07 08:06:31;;;;;;;32.85;22.33;;;16.10;97.90;;;;;;4993168;28;20176;-69
2022/05/07 08:11:46;;;;;;;28.92;18.70;;;16.10;97.70;;;;;;5011035;28;20065;-70
2022/05/07 08:14:13;;;;;;;33.33;23.00;;;16.10;97.80;;;;;;5010986;28;20041;-69
2022/05/07 08:16:43;;;;;;;29.00;20.48;;;16.20;97.90;;;;;;5010662;28;20033;-69
2022/05/07 08:19:12;;;;;;;28.77;19.08;;;16.20;98.00;;;;;;5010966;28;20037;-69
2022/05/07 08:21:38;;;;;;;27.10;19.50;;;16.20;98.00;;;;;;4993409;28;20060;-70
2022/05/07 08:24:04;;;;;;;32.30;19.92;;;16.30;98.20;;;;;;5010887;28;20113;-69
2022/05/07 08:26:30;;;;;;;37.13;22.25;;;16.30;97.90;;;;;;5010579;28;20037;-69
2022/05/07 08:28:56;;;;;;;34.35;21.58;;;16.30;97.20;;;;;;4993105;28;20482;-69
2022/05/07 08:31:23;;;;;;;38.90;22.20;;;16.40;97.10;;;;;;5010723;28;20022;-69
2022/05/07 08:33:50;;;;;;;41.72;23.63;;;16.50;97.00;;;;;;5010861;28;20391;-70
2022/05/07 08:36:16;;;;;;;37.50;23.30;;;16.50;96.80;;;;;;5010827;28;20486;-68
2022/05/07 08:38:43;;;;;;;36.22;20.45;;;16.60;96.50;;;;;;5010872;28;20117;-69
2022/05/07 08:41:10;;;;;;;40.78;22.67;;;16.60;96.50;;;;;;5010657;28;20402;-69
2022/05/07 08:43:39;;;;;;;33.13;20.35;;;16.60;96.80;;;;;;5011990;28;20088;-69
2022/05/07 08:46:19;;;;;;;35.85;22.38;;;16.70;96.60;;;;;;5014264;28;20057;-70
2022/05/07 08:48:46;;;;;;;33.20;21.38;;;16.80;96.40;;;;;;5014129;28;20030;-68
2022/05/07 08:51:16;;;;;;;31.40;19.98;;;16.80;96.10;;;;;;5014246;28;20054;-69
2022/05/07 08:53:43;;;;;;;32.67;18.50;;;16.90;96.10;;;;;;4996603;28;20022;-69
2022/05/07 08:56:11;;;;;;;32.30;19.63;;;16.90;95.90;;;;;;4996593;28;20033;-69
2022/05/07 08:58:37;;;;;;;29.33;18.40;;;17.00;95.80;;;;;;4996080;28;20026;-69
2022/05/07 09:01:03;;;;;;;26.45;18.10;;;17.00;95.60;;;;;;5014140;28;20401;-68
2022/05/07 09:03:45;;;;;;;30.20;19.65;;;17.10;95.40;;;;;;5013984;28;20034;-69
2022/05/07 09:06:18;;;;;;;32.45;19.42;;;17.10;95.20;;;;;;5013819;28;20064;-69
2022/05/07 09:08:46;;;;;;;27.90;17.88;;;17.10;95.40;;;;;;5013722;28;20041;-69
2022/05/07 09:11:12;;;;;;;27.92;17.52;;;17.10;95.40;;;;;;5013902;28;20550;-69
2022/05/07 09:13:38;;;;;;;24.98;15.80;;;17.10;95.40;;;;;;5013710;28;20021;-69
2022/05/07 09:16:07;;;;;;;27.60;17.92;;;17.10;95.50;;;;;;5014065;28;20121;-69
2022/05/07 09:18:34;;;;;;;27.25;17.55;;;17.10;95.50;;;;;;5013579;28;20506;-69
2022/05/07 09:21:26;;;;;;;29.67;17.80;;;17.10;95.50;;;;;;5013913;28;20211;-70
2022/05/07 09:23:58;;;;;;;25.63;17.20;;;17.10;95.70;;;;;;5013711;28;20479;-69
2022/05/07 09:26:28;;;;;;;23.38;15.45;;;17.20;95.90;;;;;;5013338;28;20084;-69
2022/05/07 09:28:54;;;;;;;28.58;16.40;;;17.30;94.80;;;;;;5013445;28;20121;-69
2022/05/07 09:31:31;;;;;;;32.97;15.45;;;17.30;94.50;;;;;;5013512;28;20056;-71
2022/05/07 09:36:44;;;;;;;21.48;13.25;;;17.40;93.80;;;;;;5013272;28;20037;-70
2022/05/07 09:39:16;;;;;;;21.70;13.43;;;17.40;93.90;;;;;;5013340;28;20052;-69
2022/05/07 09:41:43;;;;;;;19.85;11.75;;;17.50;93.90;;;;;;5013538;28;20066;-69
2022/05/07 09:44:12;;;;;;;22.10;13.23;;;17.60;93.70;;;;;;5013433;28;20034;-70
2022/05/07 09:46:39;;;;;;;21.05;13.00;;;17.60;93.80;;;;;;5013082;28;20486;-69
2022/05/07 09:49:06;;;;;;;21.23;12.68;;;17.60;93.40;;;;;;5013178;28;20022;-69
2022/05/07 09:51:32;;;;;;;22.50;13.73;;;17.60;93.20;;;;;;5012924;28;20117;-70
2022/05/07 09:59:33;;;;;;;23.42;13.93;;;17.60;93.70;;;;;;5013400;28;20471;-70
2022/05/07 10:02:40;;;;;;;21.57;13.63;;;17.70;93.50;;;;;;5012955;28;20565;-69
2022/05/07 10:05:42;;;;;;;21.50;12.93;;;17.60;93.30;;;;;;4995590;28;20038;-69
2022/05/07 10:08:26;;;;;;;19.92;12.85;;;17.60;93.30;;;;;;5012650;28;20483;-69
2022/05/07 10:10:53;;;;;;;21.23;13.90;;;17.70;92.70;;;;;;5012820;28;20030;-69
2022/05/07 10:13:20;;;;;;;23.10;14.00;;;17.80;92.80;;;;;;5012809;28;20025;-70
2022/05/07 10:15:57;;;;;;;22.33;13.77;;;17.90;92.80;;;;;;5012831;28;20022;-70
2022/05/07 10:18:38;;;;;;;23.63;14.63;;;17.90;92.90;;;;;;4994934;28;20033;-69
2022/05/07 10:21:16;;;;;;;24.65;15.50;;;18.00;92.70;;;;;;5012721;28;20079;-69
2022/05/07 10:23:53;;;;;;;25.98;14.80;;;18.10;92.90;;;;;;5012482;28;20028;-69
2022/05/07 10:26:20;;;;;;;25.90;14.43;;;18.20;92.70;;;;;;4995140;28;20034;-69
2022/05/07 10:28:46;;;;;;;20.70;12.90;;;18.20;92.40;;;;;;5012826;28;20466;-69
2022/05/07 10:31:22;;;;;;;25.15;14.73;;;18.20;92.30;;;;;;5012466;28;20025;-68
2022/05/07 10:33:50;;;;;;;24.42;14.93;;;18.20;92.40;;;;;;5012539;28;20029;-69
2022/05/07 10:36:17;;;;;;;24.73;14.35;;;18.30;92.40;;;;;;5012354;28;20109;-69
2022/05/07 10:38:45;;;;;;;24.95;13.98;;;18.40;92.00;;;;;;5012201;28;20026;-69
2022/05/07 10:41:11;;;;;;;21.48;12.60;;;18.40;91.50;;;;;;5012205;28;20030;-68
2022/05/07 10:43:56;;;;;;;26.90;13.85;;;18.40;91.40;;;;;;5012122;28;20036;-68
2022/05/07 10:46:23;;;;;;;23.75;12.98;;;18.50;91.10;;;;;;5011999;28;20029;-69
2022/05/07 10:48:56;;;;;;;23.05;12.82;;;18.70;90.20;;;;;;5012013;28;20057;-69
2022/05/07 10:51:27;;;;;;;22.20;12.07;;;18.80;89.20;;;;;;4994341;28;20061;-69
2022/05/07 10:53:57;;;;;;;19.95;11.95;;;18.90;88.20;;;;;;5012159;28;20026;-69
2022/05/07 10:56:26;;;;;;;23.35;10.75;;;18.90;87.00;;;;;;5011824;28;20030;-67
2022/05/07 10:58:54;;;;;;;21.95;12.13;;;18.90;87.40;;;;;;5012013;28;20050;-69
2022/05/07 11:01:21;;;;;;;24.27;14.20;;;19.10;87.50;;;;;;4994295;28;20052;-68
2022/05/07 11:03:48;;;;;;;18.60;11.52;;;19.20;86.60;;;;;;5011887;28;20491;-68
2022/05/07 11:06:15;;;;;;;20.48;12.15;;;19.40;87.00;;;;;;4994101;28;20207;-70
2022/05/07 11:08:49;;;;;;;20.42;12.25;;;19.50;85.70;;;;;;5011628;28;20030;-69
2022/05/07 11:11:16;;;;;;;24.13;12.45;;;19.60;85.50;;;;;;5011697;28;20022;-68
2022/05/07 11:13:53;;;;;;;18.15;11.13;;;19.60;84.60;;;;;;5011662;28;20173;-69
2022/05/07 11:16:22;;;;;;;20.30;11.75;;;19.60;85.20;;;;;;4994287;28;20030;-69
2022/05/07 11:18:53;;;;;;;24.70;14.38;;;19.60;85.60;;;;;;5011516;28;20042;-69
2022/05/07 11:21:20;;;;;;;18.63;11.75;;;19.60;85.80;;;;;;5011801;28;20117;-67
2022/05/07 11:24:02;;;;;;;25.13;11.95;;;19.60;85.90;;;;;;5011484;28;20517;-69
2022/05/07 11:26:28;;;;;;;18.52;11.38;;;19.50;86.20;;;;;;5011684;28;20057;-67
2022/05/07 11:28:55;;;;;;;17.33;10.20;;;19.40;86.80;;;;;;5011588;28;20018;-70
2022/05/07 11:31:29;;;;;;;21.95;11.82;;;19.30;87.30;;;;;;5011464;28;20060;-69
2022/05/07 11:34:11;;;;;;;23.15;12.77;;;19.40;87.00;;;;;;5011492;28;20033;-69
2022/05/07 11:36:38;;;;;;;25.25;13.30;;;19.50;87.60;;;;;;5011244;28;20033;-70
2022/05/07 11:39:18;;;;;;;19.73;12.57;;;19.60;88.00;;;;;;5011438;28;20034;-70
2022/05/07 11:42:01;;;;;;;18.98;10.63;;;19.70;87.10;;;;;;5011216;28;20080;-68
2022/05/07 11:47:32;;;;;;;24.85;13.70;;;19.80;87.60;;;;;;5011109;28;20045;-70
2022/05/07 11:50:06;;;;;;;23.92;14.75;;;19.80;90.00;;;;;;5025766;23;20833;-66
2022/05/07 11:52:33;;;;;;;24.42;13.63;;;19.70;90.70;;;;;;5011369;28;20069;-67
2022/05/07 11:55:06;;;;;;;25.38;14.77;;;19.60;92.20;;;;;;5011156;28;20088;-66
2022/05/07 11:57:35;;;;;;;24.25;14.60;;;19.50;92.90;;;;;;5011034;28;20033;-67
2022/05/07 12:00:39;;;;;;;;;;;19.30;93.20;;;;;;5011623;28;20033;-66
2022/05/07 12:03:05;;;;;;;24.92;15.23;;;19.20;93.70;;;;;;4931108;29;20364;-67
2022/05/07 12:05:42;;;;;;;23.45;14.68;;;19.10;93.50;;;;;;4931227;29;20119;-67
2022/05/07 12:08:15;;;;;;;25.40;14.88;;;19.10;94.00;;;;;;4974425;28;20108;-66
2022/05/07 12:10:42;;;;;;;22.42;14.68;;;19.10;94.20;;;;;;5011179;28;20479;-66
2022/05/07 12:13:10;;;;;;;22.88;14.00;;;19.10;93.10;;;;;;5011253;28;20487;-67
2022/05/07 12:18:23;;;;;;;24.15;14.80;;;19.30;92.30;;;;;;5012031;28;20325;-66
2022/05/07 12:20:49;;;;;;;20.15;13.65;;;19.40;91.80;;;;;;5014840;28;20594;-67
2022/05/07 12:31:28;;;;;;;24.60;15.90;;;19.90;91.20;;;;;;5015020;28;20030;-66
2022/05/07 12:33:54;;;;;;;21.55;13.98;;;20.00;90.50;;;;;;5014815;28;20509;-66
2022/05/07 12:36:21;;;;;;;24.42;16.27;;;20.10;90.50;;;;;;5014869;28;20087;-67
2022/05/07 12:38:47;;;;;;;23.25;15.30;;;20.20;89.80;;;;;;5014499;28;20044;-66
2022/05/07 12:41:16;;;;;;;24.30;13.82;;;20.10;89.80;;;;;;5014808;28;20081;-66
2022/05/07 12:43:42;;;;;;;23.90;13.80;;;20.10;90.00;;;;;;5014481;28;20038;-67
2022/05/07 12:46:08;;;;;;;24.23;14.07;;;20.10;90.00;;;;;;5014530;28;20041;-67
2022/05/07 12:48:34;;;;;;;23.77;15.18;;;20.10;89.70;;;;;;4997058;28;20030;-66
2022/05/07 12:51:00;;;;;;;19.45;12.88;;;20.20;88.20;;;;;;5014471;28;20038;-66
2022/05/07 12:53:26;;;;;;;24.70;14.35;;;20.10;88.00;;;;;;5014223;28;20434;-66
2022/05/07 12:55:52;;;;;;;25.13;14.65;;;20.10;89.00;;;;;;5014525;28;20026;-66
2022/05/07 12:58:18;;;;;;;21.90;14.45;;;20.20;88.50;;;;;;5013998;28;20122;-66
2022/05/07 13:00:44;;;;;;;26.25;14.80;;;20.20;88.30;;;;;;5014028;28;20054;-66
2022/05/07 13:03:10;;;;;;;18.35;13.27;;;20.20;88.30;;;;;;5014031;28;20026;-67
2022/05/07 13:05:38;;;;;;;22.38;13.05;;;20.20;89.40;;;;;;5014045;28;20030;-67
2022/05/07 13:08:08;;;;;;;19.52;12.88;;;20.00;89.20;;;;;;5013769;28;20033;-67
2022/05/07 13:10:34;;;;;;;20.33;13.15;;;20.00;88.50;;;;;;5014018;28;20022;-66
2022/05/07 13:13:01;;;;;;;18.75;12.65;;;20.00;87.90;;;;;;5013831;28;20029;-66
2022/05/07 13:15:30;;;;;;;17.77;11.02;;;20.00;88.00;;;;;;5013756;28;20109;-66
2022/05/07 13:17:57;;;;;;;19.02;12.80;;;20.00;87.50;;;;;;5013875;28;20041;-66